sensor_id;sensor_type;location;lat;lon;timestamp;P1;durP1;ratioP1;P2;durP2;ratioP2
68870;SDS011;55906;52.278;6.808;2023-04-16T00:00:21;30.35;;;12.70;;
68870;SDS011;55906;52.278;6.808;2023-04-16T00:02:47;27.55;;;12.85;;
68870;SDS011;55906;52.278;6.808;2023-04-16T00:05:14;27.25;;;12.57;;
68870;SDS011;55906;52.278;6.808;2023-04-16T00:07:41;31.75;;;14.20;;
68870;SDS011;55906;52.278;6.808;2023-04-16T00:10:09;25.67;;;12.03;;
68870;SDS011;55906;52.278;6.808;2023-04-16T00:12:36;26.67;;;12.32;;
68870;SDS011;55906;52.278;6.808;2023-04-16T00:15:02;24.15;;;12.35;;
68870;SDS011;55906;52.278;6.808;2023-04-16T00:17:29;25.40;;;13.15;;
68870;SDS011;55906;52.278;6.808;2023-04-16T00:19:56;31.33;;;15.82;;
68870;SDS011;55906;52.278;6.808;2023-04-16T00:22:22;32.33;;;14.57;;
68870;SDS011;55906;52.278;6.808;2023-04-16T00:24:49;33.35;;;15.23;;
68870;SDS011;55906;52.278;6.808;2023-04-16T00:27:17;31.00;;;14.48;;
68870;SDS011;55906;52.278;6.808;2023-04-16T00:29:44;31.20;;;14.45;;
68870;SDS011;55906;52.278;6.808;2023-04-16T00:32:11;32.65;;;16.20;;
68870;SDS011;55906;52.278;6.808;2023-04-16T00:34:37;35.77;;;15.77;;
68870;SDS011;55906;52.278;6.808;2023-04-16T00:37:04;33.83;;;16.48;;
68870;SDS011;55906;52.278;6.808;2023-04-16T00:39:31;33.45;;;15.43;;
68870;SDS011;55906;52.278;6.808;2023-04-16T00:41:57;32.13;;;15.48;;
68870;SDS011;55906;52.278;6.808;2023-04-16T00:44:25;32.38;;;15.65;;
68870;SDS011;55906;52.278;6.808;2023-04-16T00:46:53;32.40;;;16.00;;
68870;SDS011;55906;52.278;6.808;2023-04-16T00:49:21;32.08;;;16.17;;
68870;SDS011;55906;52.278;6.808;2023-04-16T00:51:48;38.10;;;18.05;;
68870;SDS011;55906;52.278;6.808;2023-04-16T00:54:15;34.13;;;16.33;;
68870;SDS011;55906;52.278;6.808;2023-04-16T00:56:42;38.47;;;17.65;;
68870;SDS011;55906;52.278;6.808;2023-04-16T00:59:09;43.13;;;18.37;;
68870;SDS011;55906;52.278;6.808;2023-04-16T01:01:38;37.42;;;17.17;;
68870;SDS011;55906;52.278;6.808;2023-04-16T01:04:04;31.25;;;15.20;;
68870;SDS011;55906;52.278;6.808;2023-04-16T01:06:32;35.70;;;15.70;;
68870;SDS011;55906;52.278;6.808;2023-04-16T01:08:58;32.15;;;16.67;;
68870;SDS011;55906;52.278;6.808;2023-04-16T01:11:25;29.40;;;15.17;;
68870;SDS011;55906;52.278;6.808;2023-04-16T01:13:52;27.80;;;15.27;;
68870;SDS011;55906;52.278;6.808;2023-04-16T01:16:19;29.48;;;14.60;;
68870;SDS011;55906;52.278;6.808;2023-04-16T01:18:47;32.75;;;15.93;;
68870;SDS011;55906;52.278;6.808;2023-04-16T01:21:15;32.63;;;16.15;;
68870;SDS011;55906;52.278;6.808;2023-04-16T01:23:41;36.33;;;16.40;;
68870;SDS011;55906;52.278;6.808;2023-04-16T01:26:08;37.45;;;19.27;;
68870;SDS011;55906;52.278;6.808;2023-04-16T01:28:34;35.08;;;17.63;;
68870;SDS011;55906;52.278;6.808;2023-04-16T01:31:01;34.22;;;16.50;;
68870;SDS011;55906;52.278;6.808;2023-04-16T01:33:28;32.78;;;16.15;;
68870;SDS011;55906;52.278;6.808;2023-04-16T01:35:54;34.20;;;15.97;;
68870;SDS011;55906;52.278;6.808;2023-04-16T01:38:22;31.38;;;15.95;;
68870;SDS011;55906;52.278;6.808;2023-04-16T01:40:49;37.80;;;17.67;;
68870;SDS011;55906;52.278;6.808;2023-04-16T01:43:15;39.40;;;17.65;;
68870;SDS011;55906;52.278;6.808;2023-04-16T01:45:42;28.40;;;15.45;;
68870;SDS011;55906;52.278;6.808;2023-04-16T01:48:08;34.47;;;17.93;;
68870;SDS011;55906;52.278;6.808;2023-04-16T01:50:35;30.98;;;17.25;;
68870;SDS011;55906;52.278;6.808;2023-04-16T01:53:02;35.58;;;18.80;;
68870;SDS011;55906;52.278;6.808;2023-04-16T01:55:31;31.77;;;15.93;;
68870;SDS011;55906;52.278;6.808;2023-04-16T01:57:58;30.30;;;16.60;;
68870;SDS011;55906;52.278;6.808;2023-04-16T02:00:25;37.17;;;16.73;;
68870;SDS011;55906;52.278;6.808;2023-04-16T02:02:51;38.53;;;18.05;;
68870;SDS011;55906;52.278;6.808;2023-04-16T02:05:18;30.13;;;17.30;;
68870;SDS011;55906;52.278;6.808;2023-04-16T02:07:45;28.98;;;15.30;;
68870;SDS011;55906;52.278;6.808;2023-04-16T02:10:11;30.77;;;17.17;;
68870;SDS011;55906;52.278;6.808;2023-04-16T02:12:39;30.73;;;16.27;;
68870;SDS011;55906;52.278;6.808;2023-04-16T02:15:06;31.77;;;15.10;;
68870;SDS011;55906;52.278;6.808;2023-04-16T02:17:33;35.20;;;18.75;;
68870;SDS011;55906;52.278;6.808;2023-04-16T02:20:00;32.95;;;16.67;;
68870;SDS011;55906;52.278;6.808;2023-04-16T02:22:29;32.88;;;17.02;;
68870;SDS011;55906;52.278;6.808;2023-04-16T02:24:56;41.20;;;18.63;;
68870;SDS011;55906;52.278;6.808;2023-04-16T02:27:22;31.13;;;16.98;;
68870;SDS011;55906;52.278;6.808;2023-04-16T02:29:51;29.88;;;16.77;;
68870;SDS011;55906;52.278;6.808;2023-04-16T02:32:18;34.22;;;18.33;;
68870;SDS011;55906;52.278;6.808;2023-04-16T02:34:44;31.77;;;18.05;;
68870;SDS011;55906;52.278;6.808;2023-04-16T02:37:11;33.60;;;17.80;;
68870;SDS011;55906;52.278;6.808;2023-04-16T02:39:39;30.70;;;16.55;;
68870;SDS011;55906;52.278;6.808;2023-04-16T02:42:06;30.85;;;16.63;;
68870;SDS011;55906;52.278;6.808;2023-04-16T02:44:33;36.75;;;17.77;;
68870;SDS011;55906;52.278;6.808;2023-04-16T02:47:01;33.10;;;17.45;;
68870;SDS011;55906;52.278;6.808;2023-04-16T02:49:28;30.93;;;17.33;;
68870;SDS011;55906;52.278;6.808;2023-04-16T02:51:55;34.72;;;18.30;;
68870;SDS011;55906;52.278;6.808;2023-04-16T02:54:21;35.30;;;19.50;;
68870;SDS011;55906;52.278;6.808;2023-04-16T02:56:48;31.65;;;17.15;;
68870;SDS011;55906;52.278;6.808;2023-04-16T02:59:15;35.22;;;18.17;;
68870;SDS011;55906;52.278;6.808;2023-04-16T03:01:41;32.47;;;17.30;;
68870;SDS011;55906;52.278;6.808;2023-04-16T03:04:10;32.67;;;18.27;;
68870;SDS011;55906;52.278;6.808;2023-04-16T03:06:36;40.22;;;19.15;;
68870;SDS011;55906;52.278;6.808;2023-04-16T03:09:03;33.65;;;18.50;;
68870;SDS011;55906;52.278;6.808;2023-04-16T03:11:29;36.10;;;18.55;;
68870;SDS011;55906;52.278;6.808;2023-04-16T03:13:56;37.50;;;17.50;;
68870;SDS011;55906;52.278;6.808;2023-04-16T03:16:23;33.08;;;16.95;;
68870;SDS011;55906;52.278;6.808;2023-04-16T03:18:49;36.25;;;18.67;;
68870;SDS011;55906;52.278;6.808;2023-04-16T03:21:17;32.33;;;16.30;;
68870;SDS011;55906;52.278;6.808;2023-04-16T03:23:44;34.55;;;18.15;;
68870;SDS011;55906;52.278;6.808;2023-04-16T03:26:11;35.73;;;19.00;;
68870;SDS011;55906;52.278;6.808;2023-04-16T03:28:37;35.78;;;17.38;;
68870;SDS011;55906;52.278;6.808;2023-04-16T03:31:04;39.58;;;18.98;;
68870;SDS011;55906;52.278;6.808;2023-04-16T03:33:30;40.88;;;18.67;;
68870;SDS011;55906;52.278;6.808;2023-04-16T03:35:57;37.65;;;18.30;;
68870;SDS011;55906;52.278;6.808;2023-04-16T03:38:25;38.73;;;19.70;;
68870;SDS011;55906;52.278;6.808;2023-04-16T03:40:52;34.97;;;17.92;;
68870;SDS011;55906;52.278;6.808;2023-04-16T03:43:18;38.20;;;20.27;;
68870;SDS011;55906;52.278;6.808;2023-04-16T03:45:45;36.70;;;19.00;;
68870;SDS011;55906;52.278;6.808;2023-04-16T03:48:12;38.20;;;21.02;;
68870;SDS011;55906;52.278;6.808;2023-04-16T03:50:43;34.70;;;18.97;;
68870;SDS011;55906;52.278;6.808;2023-04-16T03:53:10;38.65;;;19.70;;
68870;SDS011;55906;52.278;6.808;2023-04-16T03:55:38;43.25;;;21.88;;
68870;SDS011;55906;52.278;6.808;2023-04-16T03:58:05;36.15;;;18.48;;
68870;SDS011;55906;52.278;6.808;2023-04-16T04:00:31;37.00;;;18.55;;
68870;SDS011;55906;52.278;6.808;2023-04-16T04:02:58;39.13;;;18.70;;
68870;SDS011;55906;52.278;6.808;2023-04-16T04:05:24;34.10;;;17.60;;
68870;SDS011;55906;52.278;6.808;2023-04-16T04:07:51;41.28;;;21.15;;
68870;SDS011;55906;52.278;6.808;2023-04-16T04:10:18;32.70;;;17.92;;
68870;SDS011;55906;52.278;6.808;2023-04-16T04:12:46;33.83;;;16.95;;
68870;SDS011;55906;52.278;6.808;2023-04-16T04:15:12;35.57;;;18.77;;
68870;SDS011;55906;52.278;6.808;2023-04-16T04:17:39;40.60;;;21.27;;
68870;SDS011;55906;52.278;6.808;2023-04-16T04:20:06;39.78;;;20.83;;
68870;SDS011;55906;52.278;6.808;2023-04-16T04:22:33;36.30;;;18.50;;
68870;SDS011;55906;52.278;6.808;2023-04-16T04:24:59;31.90;;;17.85;;
68870;SDS011;55906;52.278;6.808;2023-04-16T04:27:26;32.00;;;17.93;;
68870;SDS011;55906;52.278;6.808;2023-04-16T04:29:55;38.97;;;17.92;;
68870;SDS011;55906;52.278;6.808;2023-04-16T04:32:22;33.20;;;18.85;;
68870;SDS011;55906;52.278;6.808;2023-04-16T04:34:48;40.05;;;20.23;;
68870;SDS011;55906;52.278;6.808;2023-04-16T04:37:15;34.58;;;20.50;;
68870;SDS011;55906;52.278;6.808;2023-04-16T04:39:41;39.73;;;21.20;;
68870;SDS011;55906;52.278;6.808;2023-04-16T04:42:08;43.33;;;23.30;;
68870;SDS011;55906;52.278;6.808;2023-04-16T04:44:35;40.72;;;22.05;;
68870;SDS011;55906;52.278;6.808;2023-04-16T04:47:03;38.00;;;21.15;;
68870;SDS011;55906;52.278;6.808;2023-04-16T04:49:29;37.95;;;20.85;;
68870;SDS011;55906;52.278;6.808;2023-04-16T04:51:56;35.03;;;19.83;;
68870;SDS011;55906;52.278;6.808;2023-04-16T04:54:23;38.67;;;20.83;;
68870;SDS011;55906;52.278;6.808;2023-04-16T04:56:50;36.53;;;21.13;;
68870;SDS011;55906;52.278;6.808;2023-04-16T04:59:17;36.65;;;19.65;;
68870;SDS011;55906;52.278;6.808;2023-04-16T05:01:45;33.47;;;18.23;;
68870;SDS011;55906;52.278;6.808;2023-04-16T05:04:13;42.93;;;22.10;;
68870;SDS011;55906;52.278;6.808;2023-04-16T05:06:40;37.00;;;19.95;;
68870;SDS011;55906;52.278;6.808;2023-04-16T05:09:06;38.63;;;21.17;;
68870;SDS011;55906;52.278;6.808;2023-04-16T05:11:35;39.05;;;21.63;;
68870;SDS011;55906;52.278;6.808;2023-04-16T05:14:02;35.00;;;20.80;;
68870;SDS011;55906;52.278;6.808;2023-04-16T05:16:28;34.80;;;18.83;;
68870;SDS011;55906;52.278;6.808;2023-04-16T05:18:55;36.47;;;20.92;;
68870;SDS011;55906;52.278;6.808;2023-04-16T05:21:23;38.58;;;20.40;;
68870;SDS011;55906;52.278;6.808;2023-04-16T05:23:50;44.85;;;22.15;;
68870;SDS011;55906;52.278;6.808;2023-04-16T05:26:17;34.55;;;21.13;;
68870;SDS011;55906;52.278;6.808;2023-04-16T05:28:43;36.13;;;20.70;;
68870;SDS011;55906;52.278;6.808;2023-04-16T05:31:10;39.17;;;22.23;;
68870;SDS011;55906;52.278;6.808;2023-04-16T05:33:36;37.55;;;20.77;;
68870;SDS011;55906;52.278;6.808;2023-04-16T05:36:03;34.78;;;19.48;;
68870;SDS011;55906;52.278;6.808;2023-04-16T05:38:31;34.38;;;20.52;;
68870;SDS011;55906;52.278;6.808;2023-04-16T05:40:58;35.37;;;20.40;;
68870;SDS011;55906;52.278;6.808;2023-04-16T05:43:25;33.90;;;19.75;;
68870;SDS011;55906;52.278;6.808;2023-04-16T05:45:51;28.10;;;18.65;;
68870;SDS011;55906;52.278;6.808;2023-04-16T05:48:18;31.42;;;18.83;;
68870;SDS011;55906;52.278;6.808;2023-04-16T05:50:45;34.08;;;20.10;;
68870;SDS011;55906;52.278;6.808;2023-04-16T05:53:11;36.00;;;20.37;;
68870;SDS011;55906;52.278;6.808;2023-04-16T05:55:40;31.50;;;17.60;;
68870;SDS011;55906;52.278;6.808;2023-04-16T05:58:07;36.38;;;18.75;;
68870;SDS011;55906;52.278;6.808;2023-04-16T06:00:33;32.67;;;19.55;;
68870;SDS011;55906;52.278;6.808;2023-04-16T06:03:00;34.00;;;19.35;;
68870;SDS011;55906;52.278;6.808;2023-04-16T06:05:28;30.33;;;18.17;;
68870;SDS011;55906;52.278;6.808;2023-04-16T06:07:54;34.20;;;19.50;;
68870;SDS011;55906;52.278;6.808;2023-04-16T06:10:21;32.35;;;19.25;;
68870;SDS011;55906;52.278;6.808;2023-04-16T06:12:49;31.60;;;18.77;;
68870;SDS011;55906;52.278;6.808;2023-04-16T06:15:16;27.40;;;16.25;;
68870;SDS011;55906;52.278;6.808;2023-04-16T06:17:42;27.60;;;16.50;;
68870;SDS011;55906;52.278;6.808;2023-04-16T06:20:10;32.25;;;18.88;;
68870;SDS011;55906;52.278;6.808;2023-04-16T06:22:37;26.35;;;16.98;;
68870;SDS011;55906;52.278;6.808;2023-04-16T06:25:04;29.83;;;18.13;;
68870;SDS011;55906;52.278;6.808;2023-04-16T06:27:32;31.92;;;18.88;;
68870;SDS011;55906;52.278;6.808;2023-04-16T06:30:00;28.37;;;18.00;;
68870;SDS011;55906;52.278;6.808;2023-04-16T06:32:26;30.30;;;18.00;;
68870;SDS011;55906;52.278;6.808;2023-04-16T06:34:53;36.45;;;19.73;;
68870;SDS011;55906;52.278;6.808;2023-04-16T06:37:20;33.40;;;19.33;;
68870;SDS011;55906;52.278;6.808;2023-04-16T06:39:47;36.83;;;21.05;;
68870;SDS011;55906;52.278;6.808;2023-04-16T06:42:13;35.93;;;19.83;;
68870;SDS011;55906;52.278;6.808;2023-04-16T06:44:40;32.70;;;20.10;;
68870;SDS011;55906;52.278;6.808;2023-04-16T06:47:08;35.28;;;20.35;;
68870;SDS011;55906;52.278;6.808;2023-04-16T06:49:34;34.63;;;21.38;;
68870;SDS011;55906;52.278;6.808;2023-04-16T06:52:01;35.17;;;20.70;;
68870;SDS011;55906;52.278;6.808;2023-04-16T06:54:28;29.83;;;18.97;;
68870;SDS011;55906;52.278;6.808;2023-04-16T06:56:55;37.08;;;19.17;;
68870;SDS011;55906;52.278;6.808;2023-04-16T06:59:21;26.88;;;16.13;;
68870;SDS011;55906;52.278;6.808;2023-04-16T07:01:48;31.60;;;19.20;;
68870;SDS011;55906;52.278;6.808;2023-04-16T07:04:16;34.38;;;21.35;;
68870;SDS011;55906;52.278;6.808;2023-04-16T07:06:43;36.13;;;21.80;;
68870;SDS011;55906;52.278;6.808;2023-04-16T07:09:10;27.33;;;17.60;;
68870;SDS011;55906;52.278;6.808;2023-04-16T07:11:37;26.27;;;16.15;;
68870;SDS011;55906;52.278;6.808;2023-04-16T07:14:03;32.70;;;19.98;;
68870;SDS011;55906;52.278;6.808;2023-04-16T07:16:30;28.13;;;17.67;;
68870;SDS011;55906;52.278;6.808;2023-04-16T07:18:57;29.83;;;17.27;;
68870;SDS011;55906;52.278;6.808;2023-04-16T07:21:25;26.65;;;17.30;;
68870;SDS011;55906;52.278;6.808;2023-04-16T07:23:51;34.10;;;19.73;;
68870;SDS011;55906;52.278;6.808;2023-04-16T07:26:18;31.38;;;22.08;;
68870;SDS011;55906;52.278;6.808;2023-04-16T07:28:45;33.25;;;19.67;;
68870;SDS011;55906;52.278;6.808;2023-04-16T07:31:11;28.40;;;18.10;;
68870;SDS011;55906;52.278;6.808;2023-04-16T07:33:38;33.30;;;20.08;;
68870;SDS011;55906;52.278;6.808;2023-04-16T07:36:05;34.05;;;21.20;;
68870;SDS011;55906;52.278;6.808;2023-04-16T07:38:33;28.88;;;18.83;;
68870;SDS011;55906;52.278;6.808;2023-04-16T07:41:00;28.70;;;17.38;;
68870;SDS011;55906;52.278;6.808;2023-04-16T07:43:27;31.67;;;20.07;;
68870;SDS011;55906;52.278;6.808;2023-04-16T07:45:53;31.55;;;19.15;;
68870;SDS011;55906;52.278;6.808;2023-04-16T07:48:20;30.42;;;18.83;;
68870;SDS011;55906;52.278;6.808;2023-04-16T07:50:47;28.52;;;18.30;;
68870;SDS011;55906;52.278;6.808;2023-04-16T07:53:14;32.13;;;20.02;;
68870;SDS011;55906;52.278;6.808;2023-04-16T07:55:42;32.90;;;20.33;;
68870;SDS011;55906;52.278;6.808;2023-04-16T07:58:08;31.67;;;19.70;;
68870;SDS011;55906;52.278;6.808;2023-04-16T08:00:35;32.17;;;21.20;;
68870;SDS011;55906;52.278;6.808;2023-04-16T08:03:02;35.55;;;20.92;;
68870;SDS011;55906;52.278;6.808;2023-04-16T08:05:29;30.20;;;20.42;;
68870;SDS011;55906;52.278;6.808;2023-04-16T08:07:55;28.73;;;18.37;;
68870;SDS011;55906;52.278;6.808;2023-04-16T08:10:22;31.70;;;18.55;;
68870;SDS011;55906;52.278;6.808;2023-04-16T08:12:50;29.35;;;19.38;;
68870;SDS011;55906;52.278;6.808;2023-04-16T08:15:17;27.60;;;18.83;;
68870;SDS011;55906;52.278;6.808;2023-04-16T08:17:43;27.75;;;18.95;;
68870;SDS011;55906;52.278;6.808;2023-04-16T08:20:10;27.33;;;16.90;;
68870;SDS011;55906;52.278;6.808;2023-04-16T08:22:37;25.45;;;16.98;;
68870;SDS011;55906;52.278;6.808;2023-04-16T08:25:04;31.58;;;19.27;;
68870;SDS011;55906;52.278;6.808;2023-04-16T08:27:31;26.98;;;17.85;;
68870;SDS011;55906;52.278;6.808;2023-04-16T08:29:59;33.28;;;21.95;;
68870;SDS011;55906;52.278;6.808;2023-04-16T08:32:25;26.80;;;18.40;;
68870;SDS011;55906;52.278;6.808;2023-04-16T08:34:52;28.90;;;18.83;;
68870;SDS011;55906;52.278;6.808;2023-04-16T08:37:19;30.95;;;19.02;;
68870;SDS011;55906;52.278;6.808;2023-04-16T08:39:45;26.35;;;17.33;;
68870;SDS011;55906;52.278;6.808;2023-04-16T08:42:13;29.48;;;19.13;;
68870;SDS011;55906;52.278;6.808;2023-04-16T08:44:47;26.67;;;17.37;;
68870;SDS011;55906;52.278;6.808;2023-04-16T08:47:15;28.45;;;18.25;;
68870;SDS011;55906;52.278;6.808;2023-04-16T08:49:43;26.65;;;17.92;;
68870;SDS011;55906;52.278;6.808;2023-04-16T08:52:12;28.15;;;17.08;;
68870;SDS011;55906;52.278;6.808;2023-04-16T08:54:42;25.55;;;16.73;;
68870;SDS011;55906;52.278;6.808;2023-04-16T08:57:11;25.17;;;16.07;;
68870;SDS011;55906;52.278;6.808;2023-04-16T08:59:44;25.63;;;17.98;;
68870;SDS011;55906;52.278;6.808;2023-04-16T09:02:11;24.58;;;17.42;;
68870;SDS011;55906;52.278;6.808;2023-04-16T09:04:40;30.00;;;18.20;;
68870;SDS011;55906;52.278;6.808;2023-04-16T09:07:07;27.90;;;18.02;;
68870;SDS011;55906;52.278;6.808;2023-04-16T09:09:34;23.20;;;15.97;;
68870;SDS011;55906;52.278;6.808;2023-04-16T09:12:03;25.75;;;17.30;;
68870;SDS011;55906;52.278;6.808;2023-04-16T09:14:30;25.67;;;16.35;;
68870;SDS011;55906;52.278;6.808;2023-04-16T09:16:56;22.00;;;15.35;;
68870;SDS011;55906;52.278;6.808;2023-04-16T09:19:25;25.48;;;15.70;;
68870;SDS011;55906;52.278;6.808;2023-04-16T09:21:53;25.07;;;17.23;;
68870;SDS011;55906;52.278;6.808;2023-04-16T09:24:20;24.65;;;16.20;;
68870;SDS011;55906;52.278;6.808;2023-04-16T09:26:47;26.20;;;17.20;;
68870;SDS011;55906;52.278;6.808;2023-04-16T09:29:31;22.23;;;14.43;;
68870;SDS011;55906;52.278;6.808;2023-04-16T09:32:03;23.73;;;15.80;;
68870;SDS011;55906;52.278;6.808;2023-04-16T09:34:31;22.50;;;14.63;;
68870;SDS011;55906;52.278;6.808;2023-04-16T09:39:55;24.55;;;17.17;;
68870;SDS011;55906;52.278;6.808;2023-04-16T09:42:24;25.85;;;16.77;;
68870;SDS011;55906;52.278;6.808;2023-04-16T09:44:52;26.60;;;16.25;;
68870;SDS011;55906;52.278;6.808;2023-04-16T09:47:19;21.48;;;14.68;;
68870;SDS011;55906;52.278;6.808;2023-04-16T09:49:47;23.70;;;15.90;;
68870;SDS011;55906;52.278;6.808;2023-04-16T09:52:14;24.90;;;16.70;;
68870;SDS011;55906;52.278;6.808;2023-04-16T09:54:44;20.83;;;14.48;;
68870;SDS011;55906;52.278;6.808;2023-04-16T09:57:13;21.13;;;14.18;;
68870;SDS011;55906;52.278;6.808;2023-04-16T09:59:44;22.05;;;15.20;;
68870;SDS011;55906;52.278;6.808;2023-04-16T10:02:11;22.63;;;15.20;;
68870;SDS011;55906;52.278;6.808;2023-04-16T10:04:48;20.45;;;13.68;;
68870;SDS011;55906;52.278;6.808;2023-04-16T10:07:16;21.27;;;14.18;;
68870;SDS011;55906;52.278;6.808;2023-04-16T10:09:43;24.88;;;16.13;;
68870;SDS011;55906;52.278;6.808;2023-04-16T10:12:10;24.70;;;15.90;;
68870;SDS011;55906;52.278;6.808;2023-04-16T10:14:39;20.90;;;15.07;;
68870;SDS011;55906;52.278;6.808;2023-04-16T10:17:06;27.92;;;16.65;;
68870;SDS011;55906;52.278;6.808;2023-04-16T10:19:33;26.52;;;17.38;;
68870;SDS011;55906;52.278;6.808;2023-04-16T10:22:00;20.77;;;14.57;;
68870;SDS011;55906;52.278;6.808;2023-04-16T10:24:27;20.90;;;15.52;;
68870;SDS011;55906;52.278;6.808;2023-04-16T10:26:55;22.73;;;15.20;;
68870;SDS011;55906;52.278;6.808;2023-04-16T10:29:22;21.20;;;14.93;;
68870;SDS011;55906;52.278;6.808;2023-04-16T10:31:53;21.60;;;15.18;;
68870;SDS011;55906;52.278;6.808;2023-04-16T10:34:22;18.20;;;13.32;;
68870;SDS011;55906;52.278;6.808;2023-04-16T10:36:50;21.83;;;15.10;;
68870;SDS011;55906;52.278;6.808;2023-04-16T10:39:18;18.57;;;12.60;;
68870;SDS011;55906;52.278;6.808;2023-04-16T10:41:46;17.67;;;13.55;;
68870;SDS011;55906;52.278;6.808;2023-04-16T10:44:15;14.73;;;12.55;;
68870;SDS011;55906;52.278;6.808;2023-04-16T10:46:43;18.48;;;13.90;;
68870;SDS011;55906;52.278;6.808;2023-04-16T10:49:15;17.65;;;13.05;;
68870;SDS011;55906;52.278;6.808;2023-04-16T10:51:51;19.70;;;12.70;;
68870;SDS011;55906;52.278;6.808;2023-04-16T10:54:19;17.83;;;12.82;;
68870;SDS011;55906;52.278;6.808;2023-04-16T10:56:48;19.38;;;14.20;;
68870;SDS011;55906;52.278;6.808;2023-04-16T10:59:16;17.85;;;12.32;;
68870;SDS011;55906;52.278;6.808;2023-04-16T11:01:45;20.40;;;14.90;;
68870;SDS011;55906;52.278;6.808;2023-04-16T11:04:27;15.63;;;11.00;;
68870;SDS011;55906;52.278;6.808;2023-04-16T11:09:55;18.65;;;13.40;;
68870;SDS011;55906;52.278;6.808;2023-04-16T11:12:24;18.25;;;11.88;;
68870;SDS011;55906;52.278;6.808;2023-04-16T11:14:53;23.77;;;14.90;;
68870;SDS011;55906;52.278;6.808;2023-04-16T11:17:30;17.47;;;13.30;;
68870;SDS011;55906;52.278;6.808;2023-04-16T11:20:03;22.27;;;15.20;;
68870;SDS011;55906;52.278;6.808;2023-04-16T11:22:33;18.75;;;14.13;;
68870;SDS011;55906;52.278;6.808;2023-04-16T11:25:00;15.73;;;11.38;;
68870;SDS011;55906;52.278;6.808;2023-04-16T11:27:28;21.33;;;14.95;;
68870;SDS011;55906;52.278;6.808;2023-04-16T11:29:56;23.97;;;15.10;;
68870;SDS011;55906;52.278;6.808;2023-04-16T11:32:23;22.20;;;14.75;;
68870;SDS011;55906;52.278;6.808;2023-04-16T11:34:50;17.27;;;11.30;;
68870;SDS011;55906;52.278;6.808;2023-04-16T11:37:20;17.20;;;11.95;;
68870;SDS011;55906;52.278;6.808;2023-04-16T11:39:47;16.98;;;11.73;;
68870;SDS011;55906;52.278;6.808;2023-04-16T11:42:19;18.50;;;11.47;;
68870;SDS011;55906;52.278;6.808;2023-04-16T11:44:50;17.63;;;12.88;;
68870;SDS011;55906;52.278;6.808;2023-04-16T11:47:18;16.05;;;11.57;;
68870;SDS011;55906;52.278;6.808;2023-04-16T11:49:45;15.90;;;12.27;;
68870;SDS011;55906;52.278;6.808;2023-04-16T11:52:11;15.68;;;11.50;;
68870;SDS011;55906;52.278;6.808;2023-04-16T11:54:40;14.50;;;11.07;;
68870;SDS011;55906;52.278;6.808;2023-04-16T11:57:06;17.25;;;13.40;;
68870;SDS011;55906;52.278;6.808;2023-04-16T11:59:33;19.38;;;12.57;;
68870;SDS011;55906;52.278;6.808;2023-04-16T12:02:01;16.70;;;11.55;;
68870;SDS011;55906;52.278;6.808;2023-04-16T12:04:27;15.40;;;12.35;;
68870;SDS011;55906;52.278;6.808;2023-04-16T12:07:07;13.70;;;9.90;;
68870;SDS011;55906;52.278;6.808;2023-04-16T12:09:34;16.88;;;12.05;;
68870;SDS011;55906;52.278;6.808;2023-04-16T12:12:03;15.65;;;12.20;;
68870;SDS011;55906;52.278;6.808;2023-04-16T12:14:30;15.40;;;10.98;;
68870;SDS011;55906;52.278;6.808;2023-04-16T12:19:49;14.87;;;11.20;;
68870;SDS011;55906;52.278;6.808;2023-04-16T12:22:17;13.13;;;9.45;;
68870;SDS011;55906;52.278;6.808;2023-04-16T12:24:54;10.75;;;8.70;;
68870;SDS011;55906;52.278;6.808;2023-04-16T12:27:23;15.32;;;9.88;;
68870;SDS011;55906;52.278;6.808;2023-04-16T12:30:01;13.63;;;9.52;;
68870;SDS011;55906;52.278;6.808;2023-04-16T12:32:29;14.50;;;9.37;;
68870;SDS011;55906;52.278;6.808;2023-04-16T12:34:55;16.80;;;11.07;;
68870;SDS011;55906;52.278;6.808;2023-04-16T12:37:22;13.85;;;10.20;;
68870;SDS011;55906;52.278;6.808;2023-04-16T12:39:49;13.00;;;9.45;;
68870;SDS011;55906;52.278;6.808;2023-04-16T12:42:15;12.85;;;9.55;;
68870;SDS011;55906;52.278;6.808;2023-04-16T12:44:43;13.13;;;9.20;;
68870;SDS011;55906;52.278;6.808;2023-04-16T12:47:10;13.88;;;10.35;;
68870;SDS011;55906;52.278;6.808;2023-04-16T12:49:37;11.52;;;9.45;;
68870;SDS011;55906;52.278;6.808;2023-04-16T12:52:03;13.98;;;10.25;;
68870;SDS011;55906;52.278;6.808;2023-04-16T12:54:30;13.30;;;9.68;;
68870;SDS011;55906;52.278;6.808;2023-04-16T12:56:57;12.50;;;8.73;;
68870;SDS011;55906;52.278;6.808;2023-04-16T12:59:24;11.60;;;8.93;;
68870;SDS011;55906;52.278;6.808;2023-04-16T13:01:52;11.38;;;8.43;;
68870;SDS011;55906;52.278;6.808;2023-04-16T13:04:18;13.52;;;10.13;;
68870;SDS011;55906;52.278;6.808;2023-04-16T13:06:45;11.85;;;9.15;;
68870;SDS011;55906;52.278;6.808;2023-04-16T13:09:12;11.87;;;8.63;;
68870;SDS011;55906;52.278;6.808;2023-04-16T13:11:39;16.15;;;11.00;;
68870;SDS011;55906;52.278;6.808;2023-04-16T13:14:06;13.48;;;9.93;;
68870;SDS011;55906;52.278;6.808;2023-04-16T13:16:32;14.73;;;10.27;;
68870;SDS011;55906;52.278;6.808;2023-04-16T13:19:00;14.15;;;10.30;;
68870;SDS011;55906;52.278;6.808;2023-04-16T13:21:27;13.20;;;10.77;;
68870;SDS011;55906;52.278;6.808;2023-04-16T13:23:53;16.35;;;11.07;;
68870;SDS011;55906;52.278;6.808;2023-04-16T13:26:20;14.73;;;9.82;;
68870;SDS011;55906;52.278;6.808;2023-04-16T13:28:47;11.38;;;8.73;;
68870;SDS011;55906;52.278;6.808;2023-04-16T13:31:13;11.63;;;9.57;;
68870;SDS011;55906;52.278;6.808;2023-04-16T13:33:43;14.47;;;9.97;;
68870;SDS011;55906;52.278;6.808;2023-04-16T13:36:12;13.77;;;9.60;;
68870;SDS011;55906;52.278;6.808;2023-04-16T13:38:38;16.98;;;11.18;;
68870;SDS011;55906;52.278;6.808;2023-04-16T13:41:06;12.98;;;9.00;;
68870;SDS011;55906;52.278;6.808;2023-04-16T13:43:32;17.40;;;11.52;;
68870;SDS011;55906;52.278;6.808;2023-04-16T13:45:59;14.70;;;9.63;;
68870;SDS011;55906;52.278;6.808;2023-04-16T13:48:26;15.68;;;10.10;;
68870;SDS011;55906;52.278;6.808;2023-04-16T13:50:53;17.50;;;11.77;;
68870;SDS011;55906;52.278;6.808;2023-04-16T13:53:21;14.13;;;10.55;;
68870;SDS011;55906;52.278;6.808;2023-04-16T13:55:48;11.80;;;9.23;;
68870;SDS011;55906;52.278;6.808;2023-04-16T13:58:15;11.43;;;8.67;;
68870;SDS011;55906;52.278;6.808;2023-04-16T14:00:41;13.00;;;9.32;;
68870;SDS011;55906;52.278;6.808;2023-04-16T14:03:08;12.90;;;8.98;;
68870;SDS011;55906;52.278;6.808;2023-04-16T14:05:35;14.93;;;10.80;;
68870;SDS011;55906;52.278;6.808;2023-04-16T14:08:01;15.93;;;11.73;;
68870;SDS011;55906;52.278;6.808;2023-04-16T14:10:30;16.30;;;8.87;;
68870;SDS011;55906;52.278;6.808;2023-04-16T14:12:57;14.38;;;8.55;;
68870;SDS011;55906;52.278;6.808;2023-04-16T14:15:23;14.13;;;10.48;;
68870;SDS011;55906;52.278;6.808;2023-04-16T14:17:51;12.88;;;9.05;;
68870;SDS011;55906;52.278;6.808;2023-04-16T14:20:18;17.27;;;10.65;;
68870;SDS011;55906;52.278;6.808;2023-04-16T14:22:45;13.37;;;9.87;;
68870;SDS011;55906;52.278;6.808;2023-04-16T14:25:11;13.88;;;11.23;;
68870;SDS011;55906;52.278;6.808;2023-04-16T14:27:39;17.05;;;10.20;;
68870;SDS011;55906;52.278;6.808;2023-04-16T14:30:06;14.48;;;10.80;;
68870;SDS011;55906;52.278;6.808;2023-04-16T14:32:33;16.50;;;9.90;;